createdAt,value
2019-04-20T00:00:59.550Z,96151.2
2019-04-20T00:05:55.169Z,96149.8
2019-04-20T00:11:00.092Z,96174.5
2019-04-20T00:15:49.218Z,96166.7
2019-04-20T00:20:45.829Z,96176
2019-04-20T00:25:50.940Z,96177.1
2019-04-20T00:30:58.477Z,96183.9
2019-04-20T00:35:37.926Z,96180.5
2019-04-20T00:40:35.542Z,96182.4
2019-04-20T00:45:33.652Z,96179.8
2019-04-20T00:50:44.266Z,96167.3
2019-04-20T00:55:25.184Z,96161
2019-04-20T01:00:36.744Z,96160.4
2019-04-20T01:05:32.651Z,96169.3
2019-04-20T01:10:15.217Z,96223.9
2019-04-20T01:15:17.388Z,96161.2
2019-04-20T01:20:08.499Z,96157.9
2019-04-20T01:25:13.720Z,96154.5
2019-04-20T01:30:09.858Z,96164.7
2019-04-20T01:35:07.008Z,96156
2019-04-20T01:39:59.156Z,96153.7
2019-04-20T01:44:54.006Z,96154.4
2019-04-20T01:49:57.385Z,96153.5
2019-04-20T01:55:04.584Z,96137.4
2019-04-20T01:59:54.024Z,96130.8
2019-04-20T02:04:43.883Z,96129.5
2019-04-20T02:09:43.031Z,96133.8
2019-04-20T02:14:40.900Z,96137.7
2019-04-20T02:19:41.204Z,96134.7
2019-04-20T02:24:27.909Z,96131.2
2019-04-20T02:29:44.141Z,96135.8
2019-04-20T02:44:45.850Z,96133.5
2019-04-20T02:54:33.814Z,96119
2019-04-20T03:04:04.621Z,96118.4
2019-04-20T03:09:19.678Z,96118.3
2019-04-20T03:14:13.366Z,96124.9
2019-04-20T03:19:07.518Z,96121.7
2019-04-20T03:24:18.656Z,96132.7
2019-04-20T03:29:00.963Z,96130.7
2019-04-20T03:34:37.375Z,96134.8
2019-04-20T03:38:57.156Z,96139.9
2019-04-20T03:43:37.388Z,96134.6
2019-04-20T03:48:51.382Z,96130
2019-04-20T03:53:49.845Z,96140.3
2019-04-20T03:58:44.015Z,96134
2019-04-20T04:04:05.055Z,96228.1
2019-04-20T04:08:30.261Z,96149.3
2019-04-20T04:13:20.792Z,96166.4
2019-04-20T04:18:24.081Z,96155.3
2019-04-20T04:23:28.530Z,96251.3
2019-04-20T04:28:28.143Z,96161
2019-04-20T04:33:45.537Z,96167.2
2019-04-20T04:38:26.960Z,96137.4
2019-04-20T04:43:19.599Z,96259.1
2019-04-20T04:47:59.478Z,96182
2019-04-20T04:53:04.414Z,96174.7
2019-04-20T04:57:51.932Z,96180.6
2019-04-20T05:02:53.716Z,96177
2019-04-20T05:07:55.461Z,96182.7
2019-04-20T05:12:43.996Z,96176.8
2019-04-20T05:18:01.414Z,96178.2
2019-04-20T05:27:55.913Z,96286.5
2019-04-20T05:32:42.687Z,96262.7
2019-04-20T05:37:52.832Z,96295.4
2019-04-20T05:42:48.077Z,96214.8
2019-04-20T05:47:42.729Z,95718.7
2019-04-20T05:57:34.730Z,96225
2019-04-20T06:02:31.461Z,96225.6
2019-04-20T06:07:29.300Z,96235.2
2019-04-20T06:12:31.345Z,96172.3
2019-04-20T06:17:24.987Z,96211.3
2019-04-20T06:22:25.968Z,96231.9
2019-04-20T06:27:14.251Z,96232.1
2019-04-20T06:32:26.953Z,96232.2
2019-04-20T06:37:09.374Z,96237.6
2019-04-20T06:47:08.160Z,96333.3
2019-04-20T06:52:04.326Z,96248.5
2019-04-20T06:56:59.267Z,96261.1
2019-04-20T07:02:02.611Z,96258.6
2019-04-20T07:07:02.162Z,96261.9
2019-04-20T07:11:50.225Z,96267.3
2019-04-20T07:21:51.669Z,96268.2
2019-04-20T07:26:43.911Z,96446.8
2019-04-20T07:31:35.970Z,96275.7
2019-04-20T07:36:37.290Z,96361.7
2019-04-20T07:41:41.744Z,96439.8
2019-04-20T07:46:46.703Z,96273.4
2019-04-20T07:51:14.079Z,96289.3
2019-04-20T07:56:23.195Z,96282.5
2019-04-20T08:01:28.043Z,96293.3
2019-04-20T08:06:04.989Z,96290.5
2019-04-20T08:11:13.618Z,96287.9
2019-04-20T08:16:12.876Z,96284.6
2019-04-20T08:21:07.952Z,96282.5
2019-04-20T08:25:56.422Z,96362.1
2019-04-20T08:30:59.283Z,96365.6
2019-04-20T08:36:03.926Z,96366.1
2019-04-20T08:40:53.094Z,96369.6
2019-04-20T08:45:50.749Z,96375.7
2019-04-20T08:50:50.318Z,96377.9
2019-04-20T08:55:41.202Z,96370.4
2019-04-20T09:00:29.228Z,96376
2019-04-20T09:05:34.492Z,96381.3
2019-04-20T09:10:37.860Z,96380.2
2019-04-20T09:15:14.728Z,96376.1
2019-04-20T09:20:16.089Z,96383
2019-04-20T09:30:18.627Z,96382
2019-04-20T09:35:19.120Z,96373.5
2019-04-20T09:40:14.120Z,96366.5
2019-04-20T09:44:59.463Z,96371.4
2019-04-20T09:50:03.176Z,96377.9
2019-04-20T09:55:02.334Z,96365.9
2019-04-20T10:00:05.216Z,96376.4
2019-04-20T10:04:45.186Z,96373.9
2019-04-20T10:09:45.096Z,96303.1
2019-04-20T10:14:40.670Z,96386.6
2019-04-20T10:19:39.380Z,96399.3
2019-04-20T10:24:34.727Z,96402.6
2019-04-20T10:29:31.279Z,96400
2019-04-20T10:34:28.441Z,96401.1
2019-04-20T10:39:24.620Z,96400.6
2019-04-20T10:44:20.899Z,96401.9
2019-04-20T10:49:17.536Z,96408.9
2019-04-20T10:54:14.403Z,96404.6
2019-04-20T10:59:11.898Z,96407.9
2019-04-20T11:04:08.582Z,96412.5
2019-04-20T11:09:06.779Z,96412.1
2019-04-20T11:14:08.088Z,96417.4
2019-04-20T11:18:59.162Z,96420.8
2019-04-20T11:23:56.325Z,96420.6
2019-04-20T11:28:53.298Z,96418.8
2019-04-20T11:33:50.293Z,96418
2019-04-20T11:38:47.254Z,96426.6
2019-04-20T11:43:44.121Z,96419.6
2019-04-20T11:48:41.421Z,96421.1
2019-04-20T11:53:38.662Z,96420.7
2019-04-20T11:58:36.142Z,96423.3
2019-04-20T12:03:42.093Z,96426.7
2019-04-20T12:08:29.402Z,96428.4
2019-04-20T12:13:26.859Z,96428.6
2019-04-20T12:18:23.321Z,96422.6
2019-04-20T12:23:20.330Z,96413.9
2019-04-20T12:28:17.932Z,96414.5
2019-04-20T12:33:14.021Z,96416.6
2019-04-20T12:38:10.691Z,96420.4
2019-04-20T12:43:08.847Z,96424.9
2019-04-20T12:48:04.129Z,96417
2019-04-20T12:53:02.207Z,96416.9
2019-04-20T12:57:58.620Z,96414.7
2019-04-20T13:02:55.689Z,96321.1
2019-04-20T13:07:56.366Z,96416.9
2019-04-20T13:12:50.215Z,96415.4
2019-04-20T13:17:48.003Z,96414.1
2019-04-20T13:22:44.275Z,96413.4
2019-04-20T13:27:40.907Z,96411.6
2019-04-20T13:32:38.111Z,96417.5
2019-04-20T13:37:36.767Z,96416.1
2019-04-20T13:42:33.058Z,96421.4
2019-04-20T13:47:28.773Z,96379
2019-04-20T13:52:26.795Z,96407.6
2019-04-20T13:57:23.897Z,96407.4
2019-04-20T14:02:20.470Z,96402.9
2019-04-20T14:07:18.590Z,96404
2019-04-20T14:12:22.978Z,96399.8
2019-04-20T14:17:10.967Z,96404
2019-04-20T14:22:08.331Z,96404.4
2019-04-20T14:27:05.014Z,96402.1
2019-04-20T14:32:03.620Z,96398.3
2019-04-20T14:37:01.004Z,96311.3
2019-04-20T14:41:58.241Z,96395.6
2019-04-20T14:46:55.856Z,96391
2019-04-20T14:51:54.559Z,96384.7
2019-04-20T14:56:49.532Z,96388.9
2019-04-20T15:01:45.805Z,96392.2
2019-04-20T15:06:42.500Z,96387.9
2019-04-20T15:11:41.479Z,96361.6
2019-04-20T15:16:36.204Z,96398.2
2019-04-20T15:21:33.571Z,96403.1
2019-04-20T15:26:30.705Z,96399.9
2019-04-20T15:31:28.164Z,96372.9
2019-04-20T15:36:24.288Z,96400.2
2019-04-20T15:41:21.099Z,96406.1
2019-04-20T15:46:19.328Z,96403.4
2019-04-20T15:51:17.048Z,96404.4
2019-04-20T15:56:12.314Z,96405.7
2019-04-20T16:01:10.351Z,96405.9
2019-04-20T16:06:07.309Z,96398.5
2019-04-20T16:11:04.522Z,96404.6
2019-04-20T16:15:59.585Z,96403.6
2019-04-20T16:21:05.340Z,96402.6
2019-04-20T16:25:53.440Z,96398.6
2019-04-20T16:30:51.678Z,96345
2019-04-20T16:35:47.773Z,96398.7
2019-04-20T16:40:44.735Z,96395.8
2019-04-20T16:45:41.718Z,96402.9
2019-04-20T16:50:38.588Z,96396.3
2019-04-20T16:55:36.938Z,96405.7
2019-04-20T17:00:33.505Z,96400.8
2019-04-20T17:05:31.506Z,96393.6
2019-04-20T17:10:27.183Z,96348.9
2019-04-20T17:15:25.436Z,96405
2019-04-20T17:20:19.847Z,96409.8
2019-04-20T17:25:16.682Z,96418.2
2019-04-20T17:30:17.572Z,96417.5
2019-04-20T17:35:20.477Z,96424.4
2019-04-20T17:40:29.661Z,96495
2019-04-20T17:45:10.166Z,96429.8
2019-04-20T17:50:19.810Z,96404.7
2019-04-20T17:54:58.716Z,96434.1
2019-04-20T17:59:59.658Z,96444.4
2019-04-20T18:05:18.746Z,96361.7
2019-04-20T18:10:11.021Z,96452.6
2019-04-20T18:15:00.287Z,96461.5
2019-04-20T18:19:44.985Z,96456
2019-04-20T18:25:01.477Z,96380.1
2019-04-20T18:29:56.398Z,96349
2019-04-20T18:34:36.229Z,96476.5
2019-04-20T18:39:37.310Z,96452.7
2019-04-20T18:44:46.037Z,96393.5
2019-04-20T18:49:38.348Z,96400.1
2019-04-20T18:54:28.480Z,96390.2
2019-04-20T18:59:23.288Z,96395.3
2019-04-20T19:04:19.687Z,96212.9
2019-04-20T19:09:21.277Z,96481.3
2019-04-20T19:14:17.938Z,96394.3
2019-04-20T19:19:19.784Z,96481.2
2019-04-20T19:24:12.150Z,96386.3
2019-04-20T19:29:13.910Z,96396.3
2019-04-20T19:34:18.388Z,96395
2019-04-20T19:39:13.057Z,96390.9
2019-04-20T19:44:06.942Z,96394.8
2019-04-20T19:48:58.229Z,96395.5
2019-04-20T19:54:06.136Z,96477.8
2019-04-20T19:58:56.198Z,96393.3
2019-04-20T20:03:41.666Z,96393.3
2019-04-20T20:08:39.725Z,96387.6
2019-04-20T20:13:41.817Z,96382.9
2019-04-20T20:18:45.140Z,96380.1
2019-04-20T20:23:27.892Z,96387.1
2019-04-20T20:28:32.998Z,96390.8
2019-04-20T20:33:39.107Z,96385.9
2019-04-20T20:38:25.495Z,96386.8
2019-04-20T20:43:22.560Z,96392.5
2019-04-20T20:48:23.971Z,96390.5
2019-04-20T20:53:16.193Z,96390.9
2019-04-20T20:58:11.240Z,96382.1
2019-04-20T21:03:05.955Z,96384.8
2019-04-20T21:07:59.634Z,96392.9
2019-04-20T21:12:59.598Z,96356.9
2019-04-20T21:18:15.232Z,96390.9
2019-04-20T21:23:06.775Z,96393.1
2019-04-20T21:27:46.582Z,96392.9
2019-04-20T21:32:46.919Z,96387.9
2019-04-20T21:42:44.211Z,96386.9
2019-04-20T21:47:37.450Z,96467.4
2019-04-20T21:52:37.771Z,96380.5
2019-04-20T21:57:31.235Z,96466.7
2019-04-20T22:02:30.567Z,96381.4
2019-04-20T22:07:22.767Z,96374.2
2019-04-20T22:12:20.102Z,96385
2019-04-20T22:17:21.036Z,96386.7
2019-04-20T22:22:20.247Z,96376.8
2019-04-20T22:27:15.691Z,96381.6
2019-04-20T22:32:10.094Z,96462.8
2019-04-20T22:42:07.042Z,96458
2019-04-20T22:46:58.470Z,96367.8
2019-04-20T22:52:02.656Z,96370.6
2019-04-20T22:57:02.971Z,96351.4
2019-04-20T23:01:55.142Z,96449.3
2019-04-20T23:06:49.629Z,96393.8
2019-04-20T23:11:42.633Z,96443.6
2019-04-20T23:16:43.678Z,96439.3
2019-04-20T23:21:39.952Z,96348.5
2019-04-20T23:26:36.656Z,96345.1
2019-04-20T23:31:30.702Z,96334.2
2019-04-20T23:36:35.319Z,96324.8
2019-04-20T23:41:24.095Z,96321.8
2019-04-20T23:46:25.749Z,96325.4
2019-04-20T23:51:40.439Z,96334.6
2019-04-20T23:56:17.315Z,96418.1
